createdAt,value
2023-01-10T00:00:10.265Z,8.33
2023-01-10T00:02:59.075Z,40.00
2023-01-10T00:05:28.077Z,19.00
2023-01-10T00:07:57.165Z,31.00
2023-01-10T00:10:26.263Z,28.50
2023-01-10T00:13:14.007Z,12.33
2023-01-10T00:15:43.005Z,9.00
2023-01-10T00:18:12.296Z,13.50
2023-01-10T00:20:41.905Z,9.67
2023-01-10T00:23:11.192Z,13.67
2023-01-10T00:25:41.109Z,34.75
2023-01-10T00:28:15.753Z,22.00
2023-01-10T00:30:44.521Z,20.00
2023-01-10T00:33:19.972Z,18.67
2023-01-10T00:35:48.954Z,26.33
2023-01-10T00:38:18.268Z,20.25
2023-01-10T00:40:47.255Z,9.00
2023-01-10T00:43:34.777Z,38.00
2023-01-10T00:46:04.239Z,7.00
2023-01-10T00:48:32.867Z,11.50
2023-01-10T00:51:01.756Z,30.00
2023-01-10T00:53:30.439Z,32.00
2023-01-10T00:55:59.436Z,23.00
2023-01-10T00:58:28.634Z,11.00
2023-01-10T01:00:57.744Z,53.00
2023-01-10T01:03:26.515Z,36.00
2023-01-10T01:05:55.402Z,55.50
2023-01-10T01:08:24.189Z,44.50
2023-01-10T01:10:52.977Z,21.00
2023-01-10T01:13:22.589Z,33.00
2023-01-10T01:15:51.405Z,11.33
2023-01-10T01:18:22.019Z,12.50
2023-01-10T01:20:55.333Z,24.00
2023-01-10T01:23:25.107Z,5.00
2023-01-10T01:25:54.920Z,15.75
2023-01-10T01:28:24.014Z,8.00
2023-01-10T01:30:52.639Z,32.75
2023-01-10T01:33:22.102Z,4.00
2023-01-10T01:35:51.098Z,14.00
2023-01-10T01:38:19.994Z,21.00
2023-01-10T01:40:48.979Z,28.00
2023-01-10T01:43:28.012Z,5.00
2023-01-10T01:46:00.827Z,6.33
2023-01-10T01:48:36.844Z,2.00
2023-01-10T01:51:18.052Z,4.00
2023-01-10T01:53:51.101Z,12.50
2023-01-10T01:56:31.265Z,28.00
2023-01-10T01:59:14.494Z,18.00
2023-01-10T02:01:46.929Z,7.50
2023-01-10T02:04:22.555Z,4.00
2023-01-10T02:06:53.697Z,4.33
2023-01-10T02:09:30.021Z,22.25
2023-01-10T02:11:59.116Z,6.50
2023-01-10T02:14:29.644Z,28.33
2023-01-10T02:16:58.331Z,27.00
2023-01-10T02:19:43.609Z,28.50
2023-01-10T02:22:24.883Z,36.00
2023-01-10T02:25:39.143Z,23.00
2023-01-10T02:28:26.565Z,12.00
2023-01-10T02:31:36.741Z,14.50
2023-01-10T02:34:29.068Z,29.00
2023-01-10T02:37:12.697Z,8.00
2023-01-10T02:39:44.558Z,9.00
2023-01-10T02:42:41.912Z,17.50
2023-01-10T02:45:19.609Z,8.50
2023-01-10T02:47:48.297Z,8.00
2023-01-10T02:50:31.965Z,36.67
2023-01-10T02:53:07.169Z,18.00
2023-01-10T02:55:44.973Z,13.33
2023-01-10T02:58:58.420Z,20.00
2023-01-10T03:01:42.276Z,6.50
2023-01-10T03:04:14.103Z,8.00
2023-01-10T03:07:06.256Z,2.00
2023-01-10T03:09:59.807Z,40.00
2023-01-10T03:12:38.021Z,14.33
2023-01-10T03:15:08.327Z,13.33
2023-01-10T03:17:38.561Z,67.00
2023-01-10T03:20:08.208Z,36.33
2023-01-10T03:22:39.734Z,30.50
2023-01-10T03:25:11.865Z,36.67
2023-01-10T03:27:44.976Z,38.50
2023-01-10T03:30:28.976Z,36.00
2023-01-10T03:33:00.161Z,25.00
2023-01-10T03:35:40.114Z,7.00
2023-01-10T03:38:21.301Z,9.33
2023-01-10T03:41:12.615Z,21.00
2023-01-10T03:44:36.795Z,13.00
2023-01-10T03:47:09.485Z,16.00
2023-01-10T03:49:42.459Z,18.50
2023-01-10T03:52:16.373Z,15.00
2023-01-10T03:54:47.694Z,15.33
2023-01-10T03:57:21.892Z,19.00
2023-01-10T03:59:54.147Z,9.00
2023-01-10T04:02:23.600Z,8.50
2023-01-10T04:04:52.289Z,17.50
2023-01-10T04:07:22.111Z,8.50
2023-01-10T04:09:51.807Z,67.00
2023-01-10T04:12:20.902Z,53.00
2023-01-10T04:14:49.689Z,60.50
2023-01-10T04:17:18.998Z,30.00
2023-01-10T04:19:48.087Z,17.00
2023-01-10T04:22:17.391Z,20.67
2023-01-10T04:24:48.833Z,12.00
2023-01-10T04:27:18.853Z,11.00
2023-01-10T04:29:47.949Z,9.00
2023-01-10T04:32:16.839Z,26.00
2023-01-10T04:34:46.041Z,21.00
2023-01-10T04:37:15.028Z,14.50
2023-01-10T04:39:43.917Z,14.67
2023-01-10T04:42:12.705Z,40.50
2023-01-10T04:44:41.591Z,22.00
2023-01-10T04:47:11.108Z,12.00
2023-01-10T04:49:39.885Z,12.50
2023-01-10T04:52:08.775Z,16.00
2023-01-10T04:54:37.771Z,18.25
2023-01-10T04:57:06.863Z,9.00
2023-01-10T04:59:35.959Z,18.00
2023-01-10T05:02:04.843Z,10.50
2023-01-10T05:04:33.739Z,13.25
2023-01-10T05:07:02.550Z,19.33
2023-01-10T05:09:31.626Z,30.00
2023-01-10T05:12:00.410Z,36.00
2023-01-10T05:14:29.502Z,13.75
2023-01-10T05:16:58.495Z,18.67
2023-01-10T05:19:27.491Z,14.00
2023-01-10T05:21:56.685Z,12.50
2023-01-10T05:24:25.268Z,16.00
2023-01-10T05:26:54.055Z,5.50
2023-01-10T05:29:23.051Z,59.67
2023-01-10T05:31:52.479Z,12.67
2023-01-10T05:34:21.747Z,62.00
2023-01-10T05:36:50.537Z,11.50
2023-01-10T05:39:20.049Z,23.00
2023-01-10T05:44:17.721Z,13.50
2023-01-10T05:46:46.814Z,79.00
2023-01-10T05:49:15.917Z,20.00
2023-01-10T05:51:44.911Z,41.50
2023-01-10T05:54:13.898Z,63.00
2023-01-10T05:56:43.294Z,23.00
2023-01-10T05:59:27.366Z,64.00
2023-01-10T06:01:56.973Z,73.00
2023-01-10T06:04:26.862Z,6.25
2023-01-10T06:06:57.205Z,35.00
2023-01-10T06:09:26.385Z,41.50
2023-01-10T06:11:55.177Z,44.00
2023-01-10T06:14:24.268Z,19.00
2023-01-10T06:16:53.876Z,32.50
2023-01-10T06:19:22.768Z,41.00
2023-01-10T06:21:51.764Z,23.00
2023-01-10T06:24:20.656Z,10.50
2023-01-10T06:26:49.539Z,9.33
2023-01-10T06:29:18.430Z,8.50
2023-01-10T06:31:47.317Z,20.00
2023-01-10T06:34:16.515Z,19.25
2023-01-10T06:36:45.204Z,24.50
2023-01-10T06:39:15.320Z,26.67
2023-01-10T06:41:44.414Z,19.00
2023-01-10T06:44:13.612Z,1.00
2023-01-10T06:46:43.017Z,24.00
2023-01-10T06:49:12.006Z,17.50
2023-01-10T06:51:41.101Z,19.00
2023-01-10T06:54:10.204Z,24.00
2023-01-10T06:56:38.891Z,12.00
2023-01-10T06:59:09.103Z,15.50
2023-01-10T07:01:38.233Z,31.50
2023-01-10T07:04:07.888Z,9.33
2023-01-10T07:06:39.873Z,22.33
2023-01-10T07:09:09.483Z,6.00
2023-01-10T07:11:38.161Z,7.50
2023-01-10T07:14:07.055Z,20.00
2023-01-10T07:16:36.455Z,27.00
2023-01-10T07:19:05.460Z,10.50
2023-01-10T07:21:34.335Z,5.67
2023-01-10T07:24:03.331Z,7.33
2023-01-10T07:26:32.540Z,15.00
2023-01-10T07:29:01.322Z,18.67
2023-01-10T07:31:30.544Z,12.00
2023-01-10T07:33:59.197Z,12.33
2023-01-10T07:36:27.984Z,21.00
2023-01-10T07:38:57.795Z,13.50
2023-01-10T07:41:26.583Z,14.75
2023-01-10T07:43:55.488Z,15.00
2023-01-10T07:46:24.436Z,18.00
2023-01-10T07:48:53.154Z,28.00
2023-01-10T07:51:22.352Z,17.67
2023-01-10T07:53:53.083Z,39.50
2023-01-10T07:56:22.189Z,17.50
2023-01-10T07:58:51.579Z,17.50
2023-01-10T08:01:22.226Z,6.00
2023-01-10T08:03:51.068Z,35.00
2023-01-10T08:06:20.093Z,19.50
2023-01-10T08:08:48.986Z,24.00
2023-01-10T08:11:17.875Z,18.00
2023-01-10T08:13:47.072Z,17.50
2023-01-10T08:16:16.000Z,19.00
2023-01-10T08:18:45.075Z,14.00
2023-01-10T08:21:14.253Z,35.00
2023-01-10T08:23:43.250Z,21.00
2023-01-10T08:26:15.105Z,25.33
2023-01-10T08:28:43.905Z,23.00
2023-01-10T08:31:12.834Z,21.00
2023-01-10T08:33:42.211Z,19.00
2023-01-10T08:36:19.280Z,20.75
2023-01-10T08:38:48.977Z,20.00
2023-01-10T08:41:17.765Z,19.50
2023-01-10T08:43:50.901Z,6.33
2023-01-10T08:46:20.628Z,15.00
2023-01-10T08:48:50.889Z,28.50
2023-01-10T08:51:19.981Z,21.00
2023-01-10T08:53:49.079Z,19.00
2023-01-10T08:56:18.384Z,29.00
2023-01-10T08:58:47.370Z,32.00
2023-01-10T09:01:16.951Z,43.00
2023-01-10T09:03:45.968Z,24.00
2023-01-10T09:06:15.169Z,17.33
2023-01-10T09:08:44.263Z,35.00
2023-01-10T09:11:13.159Z,29.00
2023-01-10T09:13:42.757Z,29.00
2023-01-10T09:16:13.035Z,27.00
2023-01-10T09:18:42.074Z,23.33
2023-01-10T09:21:10.863Z,17.67
2023-01-10T09:23:40.793Z,31.50
2023-01-10T09:26:10.284Z,30.00
2023-01-10T09:28:39.274Z,28.00
2023-01-10T09:31:09.220Z,15.50
2023-01-10T09:33:46.780Z,30.67
2023-01-10T09:36:16.404Z,31.00
2023-01-10T09:38:45.812Z,43.50
2023-01-10T09:41:21.132Z,27.00
2023-01-10T09:44:01.007Z,26.50
2023-01-10T09:46:46.182Z,29.00
2023-01-10T09:49:20.673Z,36.50
2023-01-10T09:51:51.919Z,28.00
2023-01-10T09:54:30.465Z,36.67
2023-01-10T09:57:01.575Z,41.25
2023-01-10T09:59:40.198Z,13.00
2023-01-10T10:02:20.973Z,29.00
2023-01-10T10:05:26.825Z,27.00
2023-01-10T10:08:02.561Z,40.00
2023-01-10T10:10:43.849Z,31.00
2023-01-10T10:13:28.511Z,33.50
2023-01-10T10:16:09.641Z,48.00
2023-01-10T10:18:57.222Z,26.50
2023-01-10T10:22:02.976Z,34.33
2023-01-10T10:25:02.990Z,40.33
2023-01-10T10:27:50.213Z,22.67
2023-01-10T10:30:32.325Z,29.00
2023-01-10T10:33:25.997Z,17.00
2023-01-10T10:36:04.086Z,35.50
2023-01-10T10:38:39.136Z,34.67
2023-01-10T10:41:23.165Z,40.33
2023-01-10T10:43:54.825Z,24.33
2023-01-10T10:46:25.659Z,29.00
2023-01-10T10:49:22.605Z,31.00
2023-01-10T10:51:53.342Z,38.33
2023-01-10T10:54:23.257Z,29.00
2023-01-10T10:56:56.364Z,28.00
2023-01-10T10:59:25.130Z,24.67
2023-01-10T11:01:54.480Z,31.00
2023-01-10T11:04:24.072Z,32.00
2023-01-10T11:06:54.152Z,31.00
2023-01-10T11:09:37.082Z,25.00
2023-01-10T11:12:11.089Z,28.00
2023-01-10T11:14:44.075Z,38.00
2023-01-10T11:17:28.222Z,31.00
2023-01-10T11:20:15.556Z,43.00
2023-01-10T11:22:49.621Z,43.00
2023-01-10T11:25:22.141Z,38.67
2023-01-10T11:27:57.404Z,36.00
2023-01-10T11:30:31.023Z,51.00
2023-01-10T11:33:04.566Z,30.00
2023-01-10T11:35:37.259Z,19.67
2023-01-10T11:38:20.270Z,31.00
2023-01-10T11:41:01.210Z,42.67
2023-01-10T11:43:36.897Z,42.00
2023-01-10T11:46:28.414Z,35.50
2023-01-10T11:49:14.910Z,34.50
2023-01-10T11:51:49.144Z,39.00
2023-01-10T11:54:22.940Z,43.00
2023-01-10T11:56:59.614Z,51.00
2023-01-10T11:59:29.727Z,41.75
2023-01-10T12:02:17.416Z,29.33
2023-01-10T12:04:49.348Z,45.00
2023-01-10T12:07:21.788Z,49.50
2023-01-10T12:10:02.145Z,35.00
2023-01-10T12:12:34.422Z,32.00
2023-01-10T12:15:39.255Z,44.00
2023-01-10T12:18:08.037Z,48.00
2023-01-10T12:20:58.137Z,42.00
2023-01-10T12:23:29.371Z,23.00
2023-01-10T12:26:11.100Z,41.50
2023-01-10T12:28:53.671Z,39.00
2023-01-10T12:31:23.917Z,16.00
2023-01-10T12:34:20.231Z,33.00
2023-01-10T12:37:23.972Z,18.33
2023-01-10T12:40:01.628Z,23.50
2023-01-10T12:43:05.238Z,24.67
2023-01-10T12:45:48.186Z,30.00
2023-01-10T12:48:30.868Z,29.50
2023-01-10T12:51:07.933Z,26.00
2023-01-10T12:53:53.227Z,25.50
2023-01-10T12:56:22.837Z,29.50
2023-01-10T12:58:57.250Z,31.75
2023-01-10T13:01:40.695Z,24.00
2023-01-10T13:04:15.694Z,21.50
2023-01-10T13:06:45.643Z,34.33
2023-01-10T13:09:22.802Z,26.00
2023-01-10T13:12:44.770Z,21.00
2023-01-10T13:15:38.700Z,32.00
2023-01-10T13:18:35.045Z,29.50
2023-01-10T13:21:13.729Z,31.33
2023-01-10T13:24:01.622Z,25.25
2023-01-10T13:26:52.628Z,36.33
2023-01-10T13:29:29.057Z,29.00
2023-01-10T13:32:01.915Z,22.67
2023-01-10T13:34:35.895Z,37.00
2023-01-10T13:37:12.719Z,26.00
2023-01-10T13:39:49.121Z,44.33
2023-01-10T13:42:48.837Z,30.00
2023-01-10T13:45:23.668Z,30.50
2023-01-10T13:47:55.732Z,37.00
2023-01-10T13:50:24.430Z,38.00
2023-01-10T13:53:08.766Z,28.00
2023-01-10T13:55:43.093Z,33.00
2023-01-10T13:58:16.787Z,38.00
2023-01-10T14:01:10.464Z,25.00
2023-01-10T14:03:54.195Z,41.67
2023-01-10T14:06:29.574Z,37.00
2023-01-10T14:09:13.686Z,16.67
2023-01-10T14:11:45.851Z,39.33
2023-01-10T14:14:27.446Z,29.00
2023-01-10T14:17:18.088Z,41.33
2023-01-10T14:20:06.231Z,25.00
2023-01-10T14:22:38.962Z,37.00
2023-01-10T14:25:21.983Z,18.00
2023-01-10T14:27:52.718Z,29.00
2023-01-10T14:30:26.933Z,29.00
2023-01-10T14:33:00.130Z,29.67
2023-01-10T14:35:37.724Z,32.00
2023-01-10T14:38:13.059Z,29.00
2023-01-10T14:40:46.417Z,29.00
2023-01-10T14:43:23.231Z,44.00
2023-01-10T14:46:21.985Z,26.00
2023-01-10T14:48:58.498Z,31.00
2023-01-10T14:51:29.862Z,34.50
2023-01-10T14:54:03.908Z,27.00
2023-01-10T14:56:40.721Z,37.50
2023-01-10T14:59:28.667Z,34.00
2023-01-10T15:02:01.825Z,33.50
2023-01-10T15:04:34.001Z,29.00
2023-01-10T15:07:12.334Z,30.50
2023-01-10T15:09:49.104Z,26.00
2023-01-10T15:12:21.835Z,38.00
2023-01-10T15:15:04.601Z,29.00
2023-01-10T15:17:36.180Z,17.00
2023-01-10T15:20:05.982Z,33.00
2023-01-10T15:22:36.608Z,31.50
2023-01-10T15:25:26.786Z,30.00
2023-01-10T15:27:57.980Z,12.00
2023-01-10T15:30:35.724Z,34.00
2023-01-10T15:33:27.966Z,23.00
2023-01-10T15:36:03.508Z,30.50
2023-01-10T15:38:35.983Z,28.00
2023-01-10T15:41:07.074Z,27.00
2023-01-10T15:43:37.372Z,22.00
2023-01-10T15:46:17.044Z,14.50
2023-01-10T15:48:56.162Z,25.00
2023-01-10T15:51:33.415Z,22.67
2023-01-10T15:54:20.727Z,21.00
2023-01-10T15:56:53.287Z,22.00
2023-01-10T15:59:33.133Z,26.33
2023-01-10T16:02:25.047Z,21.00
2023-01-10T16:04:58.278Z,14.75
2023-01-10T16:07:42.836Z,22.00
2023-01-10T16:10:28.001Z,20.00
2023-01-10T16:13:28.769Z,30.00
2023-01-10T16:16:00.167Z,14.00
2023-01-10T16:18:28.982Z,34.50
2023-01-10T16:21:01.100Z,27.50
2023-01-10T16:23:36.894Z,49.50
2023-01-10T16:26:09.363Z,37.00
2023-01-10T16:28:38.669Z,18.00
2023-01-10T16:31:14.686Z,19.00
2023-01-10T16:33:45.668Z,33.50
2023-01-10T16:36:21.210Z,5.00
2023-01-10T16:38:50.118Z,21.50
2023-01-10T16:41:38.242Z,27.00
2023-01-10T16:44:07.133Z,24.50
2023-01-10T16:46:36.639Z,25.50
2023-01-10T16:49:07.986Z,21.67
2023-01-10T16:51:40.254Z,26.00
2023-01-10T16:54:17.846Z,19.67
2023-01-10T16:56:48.207Z,18.67
2023-01-10T16:59:20.659Z,20.33
2023-01-10T17:01:59.156Z,53.33
2023-01-10T17:04:35.763Z,38.00
2023-01-10T17:07:05.030Z,14.33
2023-01-10T17:09:34.155Z,22.67
2023-01-10T17:12:07.226Z,19.00
2023-01-10T17:14:37.742Z,18.00
2023-01-10T17:17:06.836Z,17.67
2023-01-10T17:19:37.267Z,32.33
2023-01-10T17:22:06.972Z,17.33
2023-01-10T17:24:35.768Z,10.00
2023-01-10T17:27:04.966Z,8.00
2023-01-10T17:29:35.692Z,17.67
2023-01-10T17:32:06.068Z,30.50
2023-01-10T17:34:37.665Z,17.00
2023-01-10T17:37:06.767Z,17.50
2023-01-10T17:39:38.012Z,16.00
2023-01-10T17:42:07.516Z,21.00
2023-01-10T17:44:36.539Z,26.50
2023-01-10T17:47:05.518Z,16.00
2023-01-10T17:49:36.659Z,21.00
2023-01-10T17:52:05.974Z,21.00
2023-01-10T17:54:36.566Z,15.00
2023-01-10T17:57:06.796Z,16.33
2023-01-10T17:59:36.910Z,12.00
2023-01-10T18:02:06.471Z,12.67
2023-01-10T18:04:36.337Z,20.00
2023-01-10T18:07:05.649Z,18.50
2023-01-10T18:09:35.340Z,10.00
2023-01-10T18:12:05.369Z,28.67
2023-01-10T18:14:37.345Z,19.50
2023-01-10T18:17:10.934Z,27.00
2023-01-10T18:19:39.919Z,13.00
2023-01-10T18:22:28.670Z,15.50
2023-01-10T18:24:58.281Z,16.00
2023-01-10T18:27:27.992Z,14.00
2023-01-10T18:29:56.979Z,14.50
2023-01-10T18:32:26.381Z,22.25
2023-01-10T18:34:55.491Z,18.00
2023-01-10T18:37:26.823Z,12.00
2023-01-10T18:39:55.719Z,9.33
2023-01-10T18:42:24.606Z,14.00
2023-01-10T18:44:53.494Z,5.00
2023-01-10T18:47:22.485Z,13.67
2023-01-10T18:49:51.580Z,15.75
2023-01-10T18:52:21.282Z,15.50
2023-01-10T18:54:54.691Z,19.50
2023-01-10T18:57:25.234Z,11.67
2023-01-10T18:59:54.206Z,24.00
2023-01-10T19:02:23.630Z,17.00
2023-01-10T19:04:52.504Z,14.00
2023-01-10T19:07:21.392Z,15.33
2023-01-10T19:09:50.690Z,21.00
2023-01-10T19:12:19.687Z,15.00
2023-01-10T19:14:48.471Z,13.00
2023-01-10T19:17:18.597Z,9.50
2023-01-10T19:19:48.810Z,13.33
2023-01-10T19:22:18.931Z,13.00
2023-01-10T19:24:47.820Z,13.00
2023-01-10T19:27:18.659Z,14.67
2023-01-10T19:29:50.026Z,15.00
2023-01-10T19:32:18.895Z,6.00
2023-01-10T19:34:47.792Z,10.00
2023-01-10T19:37:17.292Z,14.00
2023-01-10T19:39:45.977Z,7.00
2023-01-10T19:42:14.864Z,14.00
2023-01-10T19:44:45.292Z,13.50
2023-01-10T19:47:15.921Z,13.00
2023-01-10T19:49:44.713Z,13.67
2023-01-10T19:52:13.802Z,13.00
2023-01-10T19:54:42.693Z,21.00
2023-01-10T19:57:11.797Z,10.00
2023-01-10T19:59:42.018Z,13.00
2023-01-10T20:02:14.182Z,9.00
2023-01-10T20:04:43.072Z,17.00
2023-01-10T20:07:12.264Z,17.00
2023-01-10T20:09:41.768Z,14.33
2023-01-10T20:12:12.707Z,12.00
2023-01-10T20:14:41.532Z,14.67
2023-01-10T20:17:10.596Z,20.00
2023-01-10T20:19:40.920Z,12.00
2023-01-10T20:22:10.523Z,11.00
2023-01-10T20:24:39.515Z,22.00
2023-01-10T20:27:09.843Z,12.00
2023-01-10T20:29:40.977Z,16.50
2023-01-10T20:32:09.716Z,13.67
2023-01-10T20:34:38.658Z,17.50
2023-01-10T20:37:07.775Z,13.00
2023-01-10T20:39:37.359Z,12.75
2023-01-10T20:42:07.184Z,13.50
2023-01-10T20:44:36.369Z,24.33
2023-01-10T20:47:05.066Z,42.50
2023-01-10T20:49:34.050Z,13.00
2023-01-10T20:52:03.042Z,27.00
2023-01-10T20:54:31.991Z,6.50
2023-01-10T20:57:00.708Z,9.00
2023-01-10T20:59:32.581Z,12.00
2023-01-10T21:02:02.539Z,18.00
2023-01-10T21:04:31.585Z,9.00
2023-01-10T21:07:00.527Z,24.00
2023-01-10T21:09:29.452Z,11.00
2023-01-10T21:12:10.587Z,18.00
2023-01-10T21:14:48.034Z,15.00
2023-01-10T21:17:16.905Z,14.50
2023-01-10T21:19:45.679Z,14.33
2023-01-10T21:22:14.336Z,14.50
2023-01-10T21:24:43.186Z,8.00
2023-01-10T21:27:11.796Z,10.25
2023-01-10T21:29:40.609Z,12.00
2023-01-10T21:32:09.507Z,11.00
2023-01-10T21:34:39.546Z,13.00
2023-01-10T21:37:08.250Z,20.50
2023-01-10T21:39:36.755Z,12.00
2023-01-10T21:42:24.740Z,14.00
2023-01-10T21:44:53.516Z,12.50
2023-01-10T21:47:22.256Z,6.00
2023-01-10T21:49:51.552Z,9.50
2023-01-10T21:52:20.492Z,4.00
2023-01-10T21:54:49.134Z,12.67
2023-01-10T21:57:22.082Z,9.00
2023-01-10T21:59:52.181Z,12.33
2023-01-10T22:02:22.956Z,14.00
2023-01-10T22:04:54.300Z,17.50
2023-01-10T22:07:25.250Z,30.00
2023-01-10T22:09:54.566Z,17.00
2023-01-10T22:12:25.310Z,12.00
2023-01-10T22:14:54.234Z,18.75
2023-01-10T22:17:23.664Z,23.00
2023-01-10T22:19:52.346Z,26.00
2023-01-10T22:22:20.939Z,15.67
2023-01-10T22:24:49.695Z,23.67
2023-01-10T22:27:20.057Z,21.50
2023-01-10T22:29:48.905Z,8.00
2023-01-10T22:32:17.514Z,18.67
2023-01-10T22:34:46.090Z,24.00
2023-01-10T22:37:16.066Z,25.50
2023-01-10T22:39:46.501Z,13.00
2023-01-10T22:42:16.364Z,21.33
2023-01-10T22:44:45.110Z,37.00
2023-01-10T22:47:13.999Z,87.00
2023-01-10T22:49:42.727Z,233.50
2023-01-10T22:52:11.922Z,214.00
2023-01-10T22:54:41.137Z,120.50
2023-01-10T22:57:10.533Z,51.75
2023-01-10T22:59:39.182Z,31.33
2023-01-10T23:02:07.920Z,34.50
2023-01-10T23:04:36.553Z,21.50
2023-01-10T23:07:05.260Z,32.50
2023-01-10T23:09:33.972Z,21.00
2023-01-10T23:12:02.807Z,14.75
2023-01-10T23:14:31.497Z,11.50
2023-01-10T23:17:00.830Z,18.25
2023-01-10T23:19:29.578Z,12.25
2023-01-10T23:21:58.131Z,11.75
2023-01-10T23:24:28.097Z,11.33
2023-01-10T23:26:57.100Z,6.00
2023-01-10T23:29:26.192Z,25.00
2023-01-10T23:31:55.311Z,25.00
2023-01-10T23:34:24.798Z,32.00
2023-01-10T23:36:53.684Z,35.50
2023-01-10T23:49:17.536Z,14.00
2023-01-10T23:51:46.416Z,28.67
2023-01-10T23:54:17.455Z,15.50
2023-01-10T23:56:46.203Z,14.00
2023-01-10T23:59:15.051Z,20.00
